Time;durP1;ratioP1;P1;durP2;ratioP2;P2;SDS_P1;SDS_P2;PMS_P1;PMS_P2;Temp;Humidity;BMP_temperature;BMP_pressure;BME280_temperature;BME280_humidity;BME280_pressure;Samples;Min_cycle;Max_cycle;Signal;HPM_P1;HPM_P2
2023/04/29 00:00:53;;;;;;;;;7.00;6.00;;;;;15.10;63.93;100955.94;5075170;27;45627;-79
2023/04/29 00:03:19;;;;;;;;;6.50;5.50;;;;;15.13;64.29;100953.84;5074719;27;45674;-76
2023/04/29 00:09:06;;;;;;;;;9.50;6.50;;;;;15.08;64.21;100957.84;5074326;28;45726;-77
2023/04/29 00:11:31;;;;;;;;;5.50;4.50;;;;;15.13;64.22;100964.41;5074929;27;45711;-78
2023/04/29 00:13:57;;;;;;;;;9.00;7.25;;;;;15.12;64.00;100952.19;5074471;27;46595;-78
2023/04/29 00:16:22;;;;;;;;;6.25;6.25;;;;;15.13;64.36;100948.56;5074457;27;45884;-78
2023/04/29 00:18:48;;;;;;;;;5.00;5.00;;;;;15.12;64.28;100949.53;5074509;27;46059;-78
2023/04/29 00:21:13;;;;;;;;;5.50;4.00;;;;;15.17;64.27;100957.06;5074760;27;45712;-78
2023/04/29 00:23:38;;;;;;;;;4.50;4.50;;;;;15.20;64.23;100956.81;5074461;27;45734;-78
2023/04/29 00:26:04;;;;;;;;;6.50;6.00;;;;;15.19;63.98;100951.66;5072781;28;45959;-79
2023/04/29 00:28:29;;;;;;;;;5.75;5.00;;;;;15.19;64.11;100946.38;5074327;27;45756;-78
2023/04/29 00:30:55;;;;;;;;;7.00;6.00;;;;;15.13;64.28;100939.81;5073606;27;45807;-79
2023/04/29 00:33:20;;;;;;;;;5.50;5.00;;;;;15.13;64.40;100939.81;5073697;27;45830;-78
2023/04/29 00:39:07;;;;;;;;;6.00;6.00;;;;;15.12;64.38;100943.41;5073923;28;45888;-76
2023/04/29 00:41:33;;;;;;;;;5.00;5.00;;;;;15.07;64.32;100946.44;5074712;27;45811;-77
2023/04/29 00:43:59;;;;;;;;;6.00;6.00;;;;;15.06;64.26;100941.31;5072154;28;47344;-76
2023/04/29 00:46:24;;;;;;;;;5.25;5.25;;;;;14.99;64.37;100940.16;5089413;27;46774;-77
2023/04/29 00:48:50;;;;;;;;;6.75;6.75;;;;;14.97;64.95;100937.63;5073918;28;45915;-77
2023/04/29 00:54:38;;;;;;;;;8.75;7.00;;;;;14.84;64.64;100938.81;5073809;28;45734;-78
2023/04/29 00:57:06;;;;;;;;;9.75;6.25;;;;;14.81;64.94;100939.88;5089477;27;46744;-78
2023/04/29 00:59:33;;;;;;;;;8.00;7.75;;;;;14.83;64.78;100939.78;5073828;27;45661;-77
2023/04/29 01:02:00;;;;;;;;;6.00;6.00;;;;;14.83;64.85;100937.97;5089694;27;46047;-79
2023/04/29 01:04:28;;;;;;;;;7.75;6.75;;;;;14.84;65.01;100941.44;5073632;27;45623;-80
2023/04/29 01:07:17;;;;;;;;;10.25;7.25;;;;;14.87;64.68;100933.25;5073535;27;45965;-79
2023/04/29 01:09:51;;;;;;;;;8.00;8.00;;;;;14.88;64.87;100940.22;5073888;28;46402;-80
2023/04/29 01:12:22;;;;;;;;;7.50;7.50;;;;;14.86;64.74;100942.13;5074044;27;45702;-81
2023/04/29 01:15:05;;;;;;;;;6.00;6.00;;;;;14.85;65.03;100951.84;5074167;28;46895;-76
2023/04/29 01:17:40;;;;;;;;;6.00;5.00;;;;;14.89;64.82;100947.19;5073633;28;45548;-77
2023/04/29 01:20:07;;;;;;;;;7.50;4.00;;;;;14.80;64.67;100935.56;5071838;28;45651;-76
2023/04/29 01:22:33;;;;;;;;;6.75;6.00;;;;;14.82;65.19;100917.00;5073619;27;45778;-77
2023/04/29 01:24:58;;;;;;;;;7.00;5.50;;;;;14.82;65.04;100935.44;5073813;27;45681;-77
2023/04/29 01:27:37;;;;;;;;;5.75;5.75;;;;;14.76;65.18;100938.59;5073369;27;45663;-77
2023/04/29 01:30:26;;;;;;;;;9.00;7.25;;;;;14.71;65.22;100936.34;5073365;27;45569;-76
2023/04/29 01:33:05;;;;;;;;;5.00;5.00;;;;;14.64;65.15;100941.28;5073500;27;45746;-77
2023/04/29 01:35:58;;;;;;;;;6.00;5.00;;;;;14.63;65.06;100941.41;5088731;27;47717;-77
2023/04/29 01:38:38;;;;;;;;;5.75;5.75;;;;;14.63;65.36;100944.88;5072617;28;45951;-77
2023/04/29 01:41:15;;;;;;;;;7.00;5.00;;;;;14.60;65.66;100944.31;5073265;27;45597;-78
2023/04/29 01:43:45;;;;;;;;;7.50;7.25;;;;;14.57;65.49;100926.97;5072666;27;45779;-75
2023/04/29 01:46:16;;;;;;;;;6.75;5.75;;;;;14.61;65.67;100938.91;5073382;27;46447;-77
2023/04/29 01:48:42;;;;;;;;;6.00;6.00;;;;;14.63;65.41;100930.84;5073281;27;45905;-76
2023/04/29 01:51:07;;;;;;;;;6.00;6.00;;;;;14.62;65.26;100926.56;5072879;27;45723;-78
2023/04/29 01:53:33;;;;;;;;;6.00;4.75;;;;;14.62;65.51;100922.13;5073262;28;45775;-77
2023/04/29 01:55:58;;;;;;;;;6.25;6.25;;;;;14.65;65.51;100929.78;5073081;27;45644;-77
2023/04/29 01:58:24;;;;;;;;;8.00;7.50;;;;;14.66;65.70;100933.25;5072990;27;46233;-77
2023/04/29 02:00:49;;;;;;;;;6.75;5.50;;;;;14.63;65.39;100926.41;5073097;27;46143;-77
2023/04/29 02:03:16;;;;;;;;;5.75;5.00;;;;;14.64;65.40;100917.56;5072968;27;45673;-75
2023/04/29 02:05:41;;;;;;;;;5.25;5.25;;;;;14.61;65.56;100924.91;5072560;27;46421;-77
2023/04/29 02:08:07;;;;;;;;;6.75;6.75;;;;;14.59;65.63;100918.91;5072691;28;45620;-75
2023/04/29 02:10:32;;;;;;;;;5.50;5.50;;;;;14.60;65.56;100925.84;5088326;27;45805;-76
2023/04/29 02:12:58;;;;;;;;;8.25;6.75;;;;;14.56;65.59;100922.63;5072956;27;45766;-77
2023/04/29 02:15:26;;;;;;;;;5.50;5.00;;;;;14.52;65.81;100920.38;5072694;27;45848;-76
2023/04/29 02:17:52;;;;;;;;;6.00;6.00;;;;;14.52;65.96;100925.66;5072521;27;45930;-80
2023/04/29 02:20:18;;;;;;;;;6.00;6.00;;;;;14.48;65.56;100929.50;5072773;27;45745;-80
2023/04/29 02:22:43;;;;;;;;;6.00;5.00;;;;;14.51;66.03;100929.25;5072729;27;45718;-80
2023/04/29 02:25:10;;;;;;;;;5.75;5.00;;;;;14.52;66.08;100934.38;5072427;27;46057;-79
2023/04/29 02:27:35;;;;;;;;;7.25;6.25;;;;;14.49;65.83;100934.66;5072856;27;46450;-78
2023/04/29 02:30:01;;;;;;;;;9.00;7.50;;;;;14.52;65.69;100936.22;5072598;28;45667;-78
2023/04/29 02:32:27;;;;;;;;;6.75;6.50;;;;;14.50;66.04;100930.22;5072856;27;45594;-78
2023/04/29 02:34:52;;;;;;;;;8.25;8.25;;;;;14.46;66.10;100937.56;5072601;27;45796;-77
2023/04/29 02:40:43;;;;;;;;;7.25;6.25;;;;;14.34;66.20;100927.13;5072505;28;45694;-78
2023/04/29 02:43:09;;;;;;;;;9.25;8.25;;;;;14.30;66.40;100932.63;5072148;27;45738;-78
2023/04/29 02:45:35;;;;;;;;;7.50;7.50;;;;;14.35;66.50;100927.00;5087777;27;48512;-77
2023/04/29 02:48:00;;;;;;;;;9.00;9.00;;;;;14.39;66.22;100930.25;5072044;28;45615;-80
2023/04/29 02:50:26;;;;;;;;;9.00;8.25;;;;;14.38;66.08;100931.22;5072385;27;45589;-80
2023/04/29 02:52:51;;;;;;;;;9.00;9.00;;;;;14.37;66.05;100937.44;5072054;27;45664;-79
2023/04/29 02:55:17;;;;;;;;;8.25;8.25;;;;;14.36;66.16;100941.03;5074010;27;46474;-78
2023/04/29 02:57:43;;;;;;;;;8.50;8.00;;;;;14.29;66.29;100940.69;5075781;27;45901;-79
2023/04/29 03:00:09;;;;;;;;;8.25;8.00;;;;;14.24;66.66;100948.13;5075708;27;45697;-80
2023/04/29 03:02:35;;;;;;;;;8.00;6.25;;;;;14.23;66.79;100943.81;5075861;27;45683;-77
2023/04/29 03:05:00;;;;;;;;;8.25;8.25;;;;;14.15;66.85;100933.88;5075681;27;45682;-77
2023/04/29 03:10:47;;;;;;;;;10.00;9.00;;;;;14.10;66.84;100941.31;5075743;28;45774;-76
2023/04/29 03:13:13;;;;;;;;;9.50;8.25;;;;;14.09;66.92;100944.91;5075737;27;45804;-75
2023/04/29 03:15:38;;;;;;;;;9.50;8.75;;;;;14.04;67.18;100936.53;5075508;27;45713;-77
2023/04/29 03:18:04;;;;;;;;;10.50;9.25;;;;;14.02;66.99;100946.38;5075630;27;46130;-77
2023/04/29 03:20:29;;;;;;;;;10.00;9.00;;;;;14.06;67.53;100953.06;5090952;27;45693;-77
2023/04/29 03:22:54;;;;;;;;;10.00;10.00;;;;;14.07;67.24;100959.19;5075527;27;45858;-75
2023/04/29 03:25:20;;;;;;;;;7.50;7.50;;;;;14.03;67.53;100948.06;5075122;27;46878;-76
2023/04/29 03:27:46;;;;;;;;;10.00;10.00;;;;;14.03;67.56;100944.59;5075318;28;46097;-77
2023/04/29 03:30:11;;;;;;;;;12.25;8.25;;;;;14.06;66.94;100953.06;5075498;27;45683;-76
2023/04/29 03:32:37;;;;;;;;;9.75;9.00;;;;;14.06;67.32;100957.50;5075391;27;45577;-77
2023/04/29 03:35:02;;;;;;;;;11.50;10.00;;;;;14.05;67.10;100961.09;5075235;27;45659;-76
2023/04/29 03:40:49;;;;;;;;;11.50;10.50;;;;;14.04;67.13;100970.78;5075051;28;45660;-76
2023/04/29 03:43:15;;;;;;;;;12.75;11.50;;;;;14.05;67.38;100963.72;5074927;27;45627;-77
2023/04/29 03:45:40;;;;;;;;;12.50;11.25;;;;;14.06;67.50;100963.63;5075019;28;45729;-79
2023/04/29 03:48:06;;;;;;;;;13.25;11.50;;;;;14.07;67.55;100962.66;5074886;27;45623;-77
2023/04/29 03:50:32;;;;;;;;;12.00;12.00;;;;;14.07;67.63;100956.56;5075022;27;45560;-75
2023/04/29 03:56:19;;;;;;;;;15.00;11.75;;;;;14.08;67.20;100966.97;5074571;28;45682;-78
2023/04/29 03:58:45;;;;;;;;;14.50;13.00;;;;;14.05;67.31;100961.09;5074915;28;46538;-78
2023/04/29 04:01:11;;;;;;;;;13.75;12.50;;;;;14.03;67.23;100963.88;5074770;28;46049;-78
2023/04/29 04:03:37;;;;;;;;;11.75;11.00;;;;;13.99;67.37;100970.31;5074915;27;45663;-77
2023/04/29 04:06:03;;;;;;;;;14.50;12.75;;;;;13.96;67.49;100975.84;5074140;27;45738;-77
2023/04/29 04:08:28;;;;;;;;;12.75;12.00;;;;;13.98;67.41;100973.09;5074321;28;46241;-77
2023/04/29 04:10:53;;;;;;;;;12.00;12.00;;;;;14.03;67.23;100982.31;5074793;27;45820;-77
2023/04/29 04:13:19;;;;;;;;;18.50;17.50;;;;;14.06;67.24;100968.88;5074703;27;45558;-77
2023/04/29 04:15:50;;;;;;;;;17.50;15.75;;;;;14.10;67.06;100974.72;5074492;27;46629;-76
2023/04/29 04:18:16;;;;;;;;;18.25;17.25;;;;;14.07;67.22;100972.34;5074605;28;46069;-77
2023/04/29 04:20:42;;;;;;;;;15.50;15.25;;;;;14.07;67.07;100973.19;5074483;27;45628;-77
2023/04/29 04:26:29;;;;;;;;;20.75;18.00;;;;;14.07;67.35;100988.16;5074061;28;45755;-78
2023/04/29 04:28:54;;;;;;;;;21.00;17.00;;;;;14.06;67.19;100991.75;5074200;28;46424;-78
2023/04/29 04:31:20;;;;;;;;;16.75;15.75;;;;;13.97;67.43;100989.84;5074609;27;45679;-77
2023/04/29 04:33:45;;;;;;;;;16.00;15.50;;;;;13.92;67.37;100987.59;5074839;28;45649;-77
2023/04/29 04:36:10;;;;;;;;;14.25;12.50;;;;;13.92;67.31;100987.59;5074147;27;46619;-77
2023/04/29 04:38:36;;;;;;;;;31.00;26.75;;;;;13.93;67.39;100989.25;5074695;27;45703;-73
2023/04/29 04:41:01;;;;;;;;;27.00;23.75;;;;;13.92;67.29;100989.38;5073419;28;45897;-76
2023/04/29 04:43:29;;;;;;;;;22.00;20.00;;;;;13.92;67.40;101003.41;5074194;27;45736;-78
2023/04/29 04:45:54;;;;;;;;;17.75;17.00;;;;;13.87;67.76;101009.00;5074242;27;46592;-76
2023/04/29 04:48:19;;;;;;;;;25.50;23.00;;;;;13.78;67.79;101008.88;5074299;27;45941;-77
2023/04/29 04:50:45;;;;;;;;;24.00;21.50;;;;;13.70;68.09;100998.13;5074447;27;45692;-76
2023/04/29 04:56:33;;;;;;;;;17.25;17.00;;;;;13.76;67.94;101011.66;5073583;28;46111;-78
2023/04/29 04:58:58;;;;;;;;;15.25;15.25;;;;;13.70;68.12;101014.78;5073808;27;46160;-76
2023/04/29 05:01:24;;;;;;;;;13.75;12.25;;;;;13.68;68.06;101029.00;5073395;27;45886;-76
2023/04/29 05:03:49;;;;;;;;;17.00;15.00;;;;;13.64;68.00;101024.94;5073901;27;46005;-73
2023/04/29 05:06:15;;;;;;;;;18.00;16.00;;;;;13.56;68.05;101019.41;5073839;27;46761;-76
2023/04/29 05:12:02;;;;;;;;;16.50;15.50;;;;;13.53;68.36;101033.66;5073382;28;45643;-74
2023/04/29 05:14:27;;;;;;;;;22.75;17.00;;;;;13.53;68.84;101040.72;5089454;27;45812;-77
2023/04/29 05:16:57;;;;;;;;;17.75;15.00;;;;;13.57;68.89;101037.72;5073146;27;46452;-77
2023/04/29 05:19:23;;;;;;;;;17.50;16.00;;;;;13.51;68.71;101046.09;5071588;28;47002;-77
2023/04/29 05:21:48;;;;;;;;;19.75;17.75;;;;;13.48;68.95;101041.06;5073430;28;45589;-76
2023/04/29 05:24:14;;;;;;;;;17.00;15.50;;;;;13.52;68.93;101049.56;5073816;27;45611;-77
2023/04/29 05:26:42;;;;;;;;;19.75;18.75;;;;;13.51;68.61;101053.97;5073191;28;46319;-77
2023/04/29 05:29:07;;;;;;;;;22.50;20.25;;;;;13.49;69.14;101050.66;5073381;27;46443;-76
2023/04/29 05:31:32;;;;;;;;;18.75;16.50;;;;;13.56;68.67;101064.16;5073540;27;45804;-78
2023/04/29 05:33:58;;;;;;;;;16.00;16.00;;;;;13.63;68.87;101074.13;5073467;27;45727;-75
2023/04/29 05:36:23;;;;;;;;;17.00;16.00;;;;;13.62;68.80;101068.97;5073216;28;46345;-77
2023/04/29 05:42:11;;;;;;;;;21.00;16.50;;;;;13.61;68.67;101081.28;5072802;28;46036;-77
2023/04/29 05:44:36;;;;;;;;;18.00;16.25;;;;;13.65;68.67;101089.81;5071569;28;45557;-77
2023/04/29 05:47:02;;;;;;;;;20.50;20.25;;;;;13.68;68.83;101081.66;5073419;27;45749;-76
2023/04/29 05:49:27;;;;;;;;;22.25;21.50;;;;;13.69;68.57;101088.59;5072922;27;45918;-78
2023/04/29 05:51:53;;;;;;;;;21.00;19.00;;;;;13.68;68.64;101097.47;5073162;27;45654;-77
2023/04/29 05:54:18;;;;;;;;;21.50;19.25;;;;;13.61;68.31;101098.88;5073123;27;45813;-78
2023/04/29 05:56:43;;;;;;;;;22.00;18.00;;;;;13.60;68.81;101094.59;5072882;27;45704;-77
2023/04/29 05:59:09;;;;;;;;;20.25;17.75;;;;;13.58;68.49;101097.31;5072808;27;45762;-78
2023/04/29 06:01:34;;;;;;;;;25.50;20.50;;;;;13.59;69.03;101098.16;5072983;27;45705;-78
2023/04/29 06:04:00;;;;;;;;;17.00;16.50;;;;;13.63;69.06;101099.59;5072941;27;45734;-78
2023/04/29 06:06:25;;;;;;;;;21.50;20.00;;;;;13.64;68.98;101106.56;5088188;27;46189;-78
2023/04/29 06:12:12;;;;;;;;;31.00;27.50;;;;;13.70;69.08;101117.47;5072589;28;45978;-77
2023/04/29 06:14:38;;;;;;;;;35.75;29.75;;;;;13.71;68.71;101113.03;5072720;27;45525;-77
2023/04/29 06:17:03;;;;;;;;;25.00;22.50;;;;;13.72;69.06;101114.69;5072774;27;46434;-77
2023/04/29 06:19:28;;;;;;;;;32.25;21.00;;;;;13.70;68.70;101106.94;5072482;28;46563;-75
2023/04/29 06:21:54;;;;;;;;;22.25;17.25;;;;;13.72;69.15;101115.53;5087835;27;46054;-75
2023/04/29 06:27:42;;;;;;;;;17.75;16.75;;;;;13.71;69.09;101119.13;5072024;28;45744;-77
2023/04/29 06:30:08;;;;;;;;;19.00;17.50;;;;;13.70;69.12;101117.47;5075321;28;46025;-76
2023/04/29 06:32:33;;;;;;;;;21.50;18.50;;;;;13.70;68.96;101120.09;5076079;27;45915;-79
2023/04/29 06:34:58;;;;;;;;;26.50;23.50;;;;;13.68;69.12;101123.78;5076419;27;45722;-78
2023/04/29 06:37:24;;;;;;;;;28.50;24.50;;;;;13.69;69.02;101130.75;5075785;27;46254;-78
2023/04/29 06:39:49;;;;;;;;;23.00;21.50;;;;;13.67;68.95;101116.84;5076055;27;46133;-77
2023/04/29 06:42:15;;;;;;;;;30.00;25.00;;;;;13.64;68.71;101127.63;5076088;27;45596;-77
2023/04/29 06:44:40;;;;;;;;;22.75;19.00;;;;;13.62;69.32;101126.88;5075746;27;46596;-77
2023/04/29 06:47:06;;;;;;;;;20.75;18.25;;;;;13.61;69.42;101120.78;5076378;27;45765;-77
2023/04/29 06:49:31;;;;;;;;;20.75;18.50;;;;;13.55;69.50;101133.59;5075694;27;45717;-75
2023/04/29 06:51:58;;;;;;;;;28.25;22.50;;;;;13.45;69.62;101123.72;5075895;27;45594;-78
2023/04/29 06:57:45;;;;;;;;;21.25;18.00;;;;;13.43;70.17;101130.06;5075516;28;45891;-76
2023/04/29 07:00:11;;;;;;;;;24.50;21.75;;;;;13.45;69.74;101134.25;5075636;28;46067;-77
2023/04/29 07:02:37;;;;;;;;;29.00;23.25;;;;;13.51;69.72;101140.00;5091461;27;46110;-75
2023/04/29 07:05:04;;;;;;;;;29.75;23.50;;;;;13.54;70.23;101139.81;5076009;27;45738;-77
2023/04/29 07:07:29;;;;;;;;;29.00;23.50;;;;;13.56;70.03;101136.06;5075472;28;45686;-77
2023/04/29 07:13:17;;;;;;;;;26.50;23.00;;;;;13.57;69.94;101156.19;5075492;28;46229;-78
2023/04/29 07:15:42;;;;;;;;;27.50;24.75;;;;;13.53;70.42;101146.00;5075681;27;45725;-78
2023/04/29 07:18:07;;;;;;;;;25.75;23.00;;;;;13.54;70.48;101150.31;5075378;27;45909;-78
2023/04/29 07:20:35;;;;;;;;;25.75;22.00;;;;;13.55;70.25;101152.00;5075333;27;46093;-79
2023/04/29 07:23:01;;;;;;;;;28.75;22.50;;;;;13.53;70.63;101151.28;5075309;28;45779;-77
2023/04/29 07:25:28;;;;;;;;;19.25;17.50;;;;;13.56;70.29;101151.03;5075572;28;45604;-77
2023/04/29 07:27:54;;;;;;;;;25.25;22.50;;;;;13.55;70.49;101152.81;5075673;27;45673;-79
2023/04/29 07:30:20;;;;;;;;;32.00;28.00;;;;;13.55;70.75;101159.91;5076482;28;46102;-78
2023/04/29 07:32:45;;;;;;;;;30.25;26.25;;;;;13.56;70.25;101162.41;5076058;28;45654;-80
2023/04/29 07:35:11;;;;;;;;;36.25;28.25;;;;;13.59;70.43;101154.28;5090823;27;45570;-77
2023/04/29 07:37:36;;;;;;;;;30.75;29.00;;;;;13.61;70.60;101157.63;5075222;27;45707;-77
2023/04/29 07:43:24;;;;;;;;;27.75;27.00;;;;;13.64;70.55;101167.97;5074654;28;45779;-77
2023/04/29 07:45:50;;;;;;;;;25.00;21.25;;;;;13.65;70.44;101172.28;5075227;27;45656;-79
2023/04/29 07:48:15;;;;;;;;;30.50;28.00;;;;;13.68;70.71;101172.03;5074938;27;46278;-78
2023/04/29 07:50:41;;;;;;;;;43.25;31.00;;;;;13.69;70.20;101172.88;5075051;27;45773;-79
2023/04/29 07:53:07;;;;;;;;;32.75;31.25;;;;;13.71;70.20;101178.88;5089876;27;45634;-78
2023/04/29 07:55:33;;;;;;;;;28.00;26.50;;;;;13.74;70.53;101183.91;5074879;27;45733;-79
2023/04/29 07:57:58;;;;;;;;;31.50;29.00;;;;;13.72;70.15;101170.84;5074803;27;45610;-76
2023/04/29 08:00:24;;;;;;;;;32.50;28.00;;;;;13.73;70.08;101169.88;5074626;27;45696;-78
2023/04/29 08:02:54;;;;;;;;;30.75;25.75;;;;;13.74;70.32;101176.00;5074654;27;45802;-76
2023/04/29 08:05:20;;;;;;;;;28.75;23.25;;;;;13.78;70.18;101178.28;5074889;27;45885;-79
2023/04/29 08:07:46;;;;;;;;;32.75;28.25;;;;;13.81;69.84;101183.34;5074608;27;46553;-78
2023/04/29 08:13:33;;;;;;;;;33.50;28.75;;;;;13.80;69.76;101184.28;5074200;28;45962;-78
2023/04/29 08:15:58;;;;;;;;;34.75;30.50;;;;;13.83;70.01;101185.84;5074815;27;45784;-77
2023/04/29 08:18:24;;;;;;;;;30.75;27.00;;;;;13.86;69.67;101186.47;5074431;27;46841;-76
2023/04/29 08:20:50;;;;;;;;;29.75;25.50;;;;;13.90;69.38;101181.78;5074424;27;46022;-79
2023/04/29 08:23:15;;;;;;;;;34.50;30.25;;;;;13.90;69.44;101186.22;5090043;27;45887;-78
2023/04/29 08:29:02;;;;;;;;;37.50;31.25;;;;;13.84;69.06;101190.16;5074098;28;46069;-78
2023/04/29 08:31:27;;;;;;;;;30.50;26.00;;;;;13.83;69.62;101189.31;5074422;27;45711;-77
2023/04/29 08:33:53;;;;;;;;;32.00;27.25;;;;;13.85;69.61;101186.56;5074463;27;45824;-80
2023/04/29 08:36:19;;;;;;;;;30.25;25.00;;;;;13.86;69.23;101191.72;5074635;27;45803;-76
2023/04/29 08:38:45;;;;;;;;;28.00;24.75;;;;;13.88;69.45;101202.97;5074115;27;45551;-78
2023/04/29 08:41:10;;;;;;;;;27.00;20.50;;;;;13.92;68.84;101189.59;5074158;27;46414;-79
2023/04/29 08:43:36;;;;;;;;;25.75;23.75;;;;;13.99;69.22;101196.88;5073969;27;45599;-79
2023/04/29 08:46:03;;;;;;;;;30.50;24.25;;;;;14.03;68.92;101192.25;5074288;27;45814;-80
2023/04/29 08:48:29;;;;;;;;;27.00;23.75;;;;;14.11;68.51;101195.13;5074020;27;46540;-79
2023/04/29 08:50:55;;;;;;;;;27.50;25.25;;;;;14.18;68.35;101191.91;5072431;28;48496;-78
2023/04/29 08:53:21;;;;;;;;;27.25;24.00;;;;;14.25;68.10;101194.91;5072733;27;45608;-77
2023/04/29 08:59:08;;;;;;;;;37.75;31.25;;;;;14.34;67.71;101196.00;5073474;28;46117;-76
2023/04/29 09:01:36;;;;;;;;;30.00;23.00;;;;;14.36;67.34;101194.91;5073746;27;45702;-78
2023/04/29 09:04:11;;;;;;;;;34.25;26.25;;;;;14.39;67.58;101210.53;5072493;28;45758;-75
2023/04/29 09:06:37;;;;;;;;;34.25;26.50;;;;;14.41;67.37;101205.16;5073759;27;45983;-80
2023/04/29 09:09:03;;;;;;;;;34.50;31.50;;;;;14.43;67.49;101197.94;5073489;28;45600;-79
2023/04/29 09:11:29;;;;;;;;;35.50;28.00;;;;;14.43;66.83;101204.06;5073589;27;46220;-76
2023/04/29 09:14:00;;;;;;;;;33.00;31.50;;;;;14.47;67.27;101202.84;5073668;27;45826;-78
2023/04/29 09:16:26;;;;;;;;;31.50;26.00;;;;;14.51;66.51;101214.88;5073902;27;45736;-79
2023/04/29 09:18:53;;;;;;;;;35.00;29.75;;;;;14.51;66.66;101214.88;5073510;27;45635;-78
2023/04/29 09:21:19;;;;;;;;;34.25;28.50;;;;;14.54;66.82;101213.75;5073625;28;46129;-75
2023/04/29 09:30:21;;;;;;;;;40.25;31.50;;;;;14.68;66.48;101224.09;5073129;28;45680;-79
2023/04/29 09:33:04;;;;;;;;;43.25;35.75;;;;;14.72;66.50;101220.25;5073700;27;46336;-77
2023/04/29 09:35:30;;;;;;;;;38.50;33.00;;;;;14.76;66.02;101220.84;5073739;27;45834;-77
2023/04/29 09:38:09;;;;;;;;;35.50;32.00;;;;;14.79;65.70;101220.63;5073379;27;45744;-77
2023/04/29 09:40:35;;;;;;;;;31.50;28.25;;;;;14.81;65.86;101224.78;5073200;27;45737;-78
2023/04/29 09:43:01;;;;;;;;;36.50;33.75;;;;;14.87;65.63;101212.91;5073167;27;46238;-78
2023/04/29 09:45:41;;;;;;;;;37.75;30.00;;;;;14.90;65.35;101217.97;5072810;27;45649;-78
2023/04/29 09:48:08;;;;;;;;;31.00;27.50;;;;;14.93;65.35;101223.00;5073018;27;45601;-78
2023/04/29 09:50:38;;;;;;;;;38.25;28.50;;;;;14.99;65.35;101227.78;5073267;27;45879;-76
2023/04/29 09:53:06;;;;;;;;;28.00;28.00;;;;;15.04;65.30;101230.88;5073282;27;45922;-78
2023/04/29 09:55:31;;;;;;;;;38.50;31.00;;;;;15.05;65.17;101220.22;5072932;27;45640;-77
2023/04/29 09:57:57;;;;;;;;;35.75;32.25;;;;;15.03;65.14;101229.22;5073128;28;45630;-78
2023/04/29 10:00:24;;;;;;;;;38.00;34.75;;;;;14.99;65.17;101220.72;5072955;27;45697;-78
2023/04/29 10:02:52;;;;;;;;;38.00;31.75;;;;;15.05;65.19;101230.78;5072893;27;46616;-80
2023/04/29 10:05:18;;;;;;;;;39.50;34.25;;;;;15.06;65.05;101229.78;5072388;27;45935;-79
2023/04/29 10:07:47;;;;;;;;;40.50;34.75;;;;;15.09;65.00;101228.72;5073066;28;45699;-80
2023/04/29 10:10:13;;;;;;;;;42.50;34.50;;;;;15.11;65.04;101224.16;5071110;28;47411;-80
2023/04/29 10:12:39;;;;;;;;;33.25;31.75;;;;;15.13;65.04;101230.16;5072758;27;45917;-79
2023/04/29 10:15:36;;;;;;;;;34.00;30.75;;;;;15.15;64.28;101228.22;5072881;27;45594;-81
2023/04/29 10:18:05;;;;;;;;;35.25;31.50;;;;;15.20;64.22;101225.22;5073325;27;45608;-80
2023/04/29 10:20:32;;;;;;;;;48.25;34.75;;;;;15.27;63.88;101215.84;5073006;27;47062;-79
2023/04/29 10:22:58;;;;;;;;;40.00;33.75;;;;;15.33;63.75;101218.81;5073043;28;46752;-78
2023/04/29 10:25:26;;;;;;;;;38.00;31.50;;;;;15.38;63.68;101223.75;5072599;28;46229;-80
2023/04/29 10:27:55;;;;;;;;;35.50;33.00;;;;;15.45;62.91;101222.25;5072825;27;45723;-79
2023/04/29 10:30:21;;;;;;;;;40.00;32.75;;;;;15.49;62.72;101226.34;5072914;27;46583;-78
2023/04/29 10:32:49;;;;;;;;;45.00;35.50;;;;;15.49;62.65;101229.81;5073044;28;46233;-80
2023/04/29 10:35:18;;;;;;;;;38.25;35.50;;;;;15.52;62.44;101216.41;5072835;27;45912;-80
2023/04/29 10:37:45;;;;;;;;;44.75;31.75;;;;;15.59;62.52;101222.03;5072780;28;45933;-80
2023/04/29 10:40:19;;;;;;;;;45.50;37.00;;;;;15.67;62.50;101226.66;5072269;27;46304;-77
2023/04/29 10:42:51;;;;;;;;;44.00;34.75;;;;;15.70;62.42;101232.53;5072789;27;46182;-78
2023/04/29 10:45:22;;;;;;;;;44.00;37.75;;;;;15.75;61.99;101229.50;5072583;27;45620;-77
2023/04/29 10:48:09;;;;;;;;;43.50;33.50;;;;;15.80;61.83;101237.91;5073026;27;45726;-77
2023/04/29 10:50:46;;;;;;;;;41.50;33.25;;;;;15.84;61.52;101239.31;5088586;27;47501;-79
2023/04/29 10:53:19;;;;;;;;;41.75;35.50;;;;;15.87;61.34;101234.59;5072894;27;46019;-79
2023/04/29 10:55:53;;;;;;;;;33.25;27.25;;;;;15.91;61.18;101243.97;5072953;28;45663;-78
2023/04/29 10:58:41;;;;;;;;;43.00;33.25;;;;;15.93;60.92;101233.25;5073230;27;45903;-78
2023/04/29 11:01:10;;;;;;;;;36.75;32.50;;;;;15.95;60.56;101234.81;5072916;27;45657;-77
2023/04/29 11:03:57;;;;;;;;;38.75;29.25;;;;;15.99;60.19;101235.38;5072729;27;46101;-79
2023/04/29 11:06:34;;;;;;;;;34.50;31.00;;;;;16.01;60.00;101241.41;5072354;27;46136;-79
2023/04/29 11:09:02;;;;;;;;;33.75;29.50;;;;;16.04;59.93;101241.13;5072635;27;45833;-78
2023/04/29 11:12:08;;;;;;;;;35.75;30.00;;;;;16.15;59.36;101241.06;5072099;27;45882;-79
2023/04/29 11:14:35;;;;;;;;;31.00;27.50;;;;;16.23;59.31;101245.72;5009336;28;46224;-79
2023/04/29 11:17:14;;;;;;;;;34.50;30.50;;;;;16.24;58.97;101237.66;5011834;28;45932;-78
2023/04/29 11:19:43;;;;;;;;;34.50;31.00;;;;;16.28;59.35;101246.16;5013181;28;45634;-79
2023/04/29 11:22:23;;;;;;;;;32.25;30.00;;;;;16.30;58.89;101247.69;5012807;28;46770;-79
2023/04/29 11:24:48;;;;;;;;;32.75;29.50;;;;;16.31;58.61;101245.88;5012800;28;46172;-78
2023/04/29 11:27:14;;;;;;;;;36.75;29.75;;;;;16.29;58.42;101240.75;5012618;28;45857;-79
2023/04/29 11:29:40;;;;;;;;;31.50;30.00;;;;;16.32;58.40;101247.56;5012743;28;45742;-78
2023/04/29 11:32:07;;;;;;;;;35.00;30.75;;;;;16.40;58.53;101255.72;5012720;28;45708;-79
2023/04/29 11:34:32;;;;;;;;;36.75;32.25;;;;;16.46;58.07;101259.63;5012609;28;46081;-78
2023/04/29 11:36:59;;;;;;;;;36.50;31.25;;;;;16.47;57.66;101251.53;5012597;28;45612;-80
2023/04/29 11:39:26;;;;;;;;;26.50;20.50;;;;;16.50;57.68;101251.31;5012914;28;45641;-79
2023/04/29 11:41:51;;;;;;;;;26.25;23.75;;;;;16.50;57.60;101248.66;5012230;28;45811;-80
2023/04/29 11:44:23;;;;;;;;;25.50;24.25;;;;;16.54;56.96;101249.22;5012244;28;46020;-78
2023/04/29 11:46:49;;;;;;;;;33.75;26.50;;;;;16.58;57.23;101246.19;5012320;28;45754;-79
2023/04/29 11:49:14;;;;;;;;;24.50;22.25;;;;;16.67;57.51;101244.59;5023388;28;45712;-78
2023/04/29 11:51:39;;;;;;;;;29.25;27.00;;;;;16.84;56.93;101245.78;5074855;27;45586;-76
2023/04/29 11:54:06;;;;;;;;;28.00;24.00;;;;;16.93;56.60;101240.53;5074838;27;46623;-78
2023/04/29 11:56:31;;;;;;;;;30.75;27.25;;;;;16.99;56.87;101236.50;5074912;27;45662;-80
2023/04/29 11:58:57;;;;;;;;;32.50;27.00;;;;;17.09;56.15;101226.75;5075123;28;45655;-80
2023/04/29 12:01:24;;;;;;;;;28.00;26.25;;;;;17.12;55.82;101229.13;5072462;28;48095;-79
2023/04/29 12:03:50;;;;;;;;;31.25;28.00;;;;;17.14;55.49;101229.84;5074780;27;46061;-80
2023/04/29 12:06:15;;;;;;;;;28.50;24.75;;;;;17.15;55.43;101219.13;5074779;28;45546;-79
2023/04/29 12:08:40;;;;;;;;;31.25;27.25;;;;;17.28;55.26;101232.09;5074784;27;45786;-81
2023/04/29 12:11:06;;;;;;;;;28.00;26.50;;;;;17.32;55.22;101230.03;5074437;27;45741;-81
2023/04/29 12:13:35;;;;;;;;;25.25;23.50;;;;;17.37;54.78;101243.69;5074705;28;46034;-76
2023/04/29 12:16:01;;;;;;;;;27.50;24.00;;;;;17.36;55.02;101237.56;5074554;27;45772;-78
2023/04/29 12:18:28;;;;;;;;;27.50;24.00;;;;;17.31;55.18;101231.84;5074553;27;45766;-79
2023/04/29 12:20:57;;;;;;;;;31.50;28.00;;;;;17.28;55.43;101233.91;5074487;27;45639;-81
2023/04/29 12:23:25;;;;;;;;;28.75;26.50;;;;;17.28;55.50;101226.78;5074605;27;46120;-79
2023/04/29 12:25:53;;;;;;;;;26.75;24.00;;;;;17.36;55.11;101228.75;5074377;28;45825;-76